Aérodrome :
LOGIN :

S'inscrire | Disclaimer

   EN    FR    IT 

 










Légende :    VFR   VFR Marginal   IFR   IFR Intensif   IFR Très Intensif
Visi : 
Plafond : 
>= 8 km
>= 3000ft
5 à 8 km
1000 à 3000 ft
1500m à 5 km
500 à 1000 ft
800 à 1500m
200 à 500 ft
< 800m
< 200 ft
Symboles :   Orages  Brouillard  Fortes neiges  Fortes précipitations  Vent > 20 kt
SIGMETs :   Divers  Orages  Givrage  Turbulence  Onde Orograph.  Cendres Volcan.







- Altitude de l'aérodrome : 370 ft


EBBE - Beauvechain AB

DERNIER METAR :
  • 141025Z 25009KT 9999 FEW018 SCT023 BKN045 20/16 Q1016 WHT WHT BECMG BLU

METARs EXPIRÉS :
  • 140955Z 26007KT 9999 FEW018 SCT022 BKN044 20/16 Q1016 WHT WHT BECMG BLU
  • 140925Z 25008KT 9999 SCT018 SCT027 BKN045 20/15 Q1016 WHT WHT BECMG BLU
  • 140855Z 25007KT 9999 SCT018 SCT035 20/16 Q1015 WHT WHT BECMG BLU
  • 140843Z 26007KT 9999 FEW011 SCT018 20/16 Q1015 WHT WHT BECMG BLU
  • 140825Z 26008KT 8000 FEW011 SCT018 BKN023 20/16 Q1015 WHT WHT
  • 140755Z 25007KT 8000 FEW008 BKN017 BKN038 19/16 Q1015 WHT WHT
  • 140725Z 25008KT 8000 FEW008 SCT020 BKN038 18/16 Q1015 WHT WHT

TAF TAF EBBE
Valide du 14 à 10h jusqu'au 14 à 19h UTC


140841Z 1410/1419 25008KT 9999 FEW020 SCT030
TEMPO 1410/1416 27015KT 6000 -SHRA SCT015 BKN040
Pas de NOTAMs connus pour ce terrain.



MET'MAP, la Météo Aéronautique d'un coup d'oeil ! - Copyright ORBIFLY Décembre 2007 - Disclaimer

ORBIFLY MET'MAP TEAM :

Programmation & Développement : Alexandra Zaïnal
Conception & Développement : Baudouin d'Aumeries
Co-Programmation & Développement : Marc-Olivier Méhu
Soutien technique & logistique : Manuel Goepfert

Contact : metmap@orbifly.com




SOURCES & CREDITS :

   NOAA